createdAt,value
2022-12-11T00:00:39.967Z,-2.61
2022-12-11T00:03:10.270Z,-2.81
2022-12-11T00:05:41.499Z,-3.15
2022-12-11T00:08:08.710Z,-3.41
2022-12-11T00:10:37.975Z,-3.59
2022-12-11T00:13:05.280Z,-3.73
2022-12-11T00:15:32.119Z,-3.87
2022-12-11T00:17:58.878Z,-4.01
2022-12-11T00:20:25.753Z,-4.12
2022-12-11T00:22:52.557Z,-4.26
2022-12-11T00:25:19.284Z,-4.30
2022-12-11T00:27:47.546Z,-4.35
2022-12-11T00:30:15.235Z,-4.38
2022-12-11T00:32:43.197Z,-4.39
2022-12-11T00:35:10.703Z,-4.37
2022-12-11T00:37:37.607Z,-4.35
2022-12-11T00:40:05.035Z,-4.31
2022-12-11T00:42:31.788Z,-4.26
2022-12-11T00:44:58.493Z,-4.23
2022-12-11T00:47:25.285Z,-4.17
2022-12-11T00:49:52.289Z,-4.13
2022-12-11T00:52:19.046Z,-4.08
2022-12-11T00:54:45.828Z,-4.03
2022-12-11T00:57:12.530Z,-4.00
2022-12-11T00:59:39.596Z,-3.97
2022-12-11T01:02:06.328Z,-3.93
2022-12-11T01:04:35.882Z,-3.88
2022-12-11T01:07:02.889Z,-3.85
2022-12-11T01:09:48.607Z,-3.82
2022-12-11T01:12:15.583Z,-3.77
2022-12-11T01:14:42.338Z,-3.73
2022-12-11T01:17:09.112Z,-3.70
2022-12-11T01:19:35.878Z,-3.66
2022-12-11T01:22:02.651Z,-3.61
2022-12-11T01:24:29.495Z,-3.57
2022-12-11T01:26:56.541Z,-3.54
2022-12-11T01:29:23.625Z,-3.49
2022-12-11T01:31:50.349Z,-3.45
2022-12-11T01:34:17.155Z,-3.41
2022-12-11T01:36:44.037Z,-3.38
2022-12-11T01:39:10.747Z,-3.33
2022-12-11T01:41:37.479Z,-3.31
2022-12-11T01:44:07.262Z,-3.26
2022-12-11T01:46:36.376Z,-3.25
2022-12-11T01:49:07.831Z,-3.27
2022-12-11T01:51:40.585Z,-3.18
2022-12-11T01:54:13.904Z,-3.16
2022-12-11T01:56:43.824Z,-3.13
2022-12-11T01:59:15.259Z,-3.14
2022-12-11T02:01:51.244Z,-3.07
2022-12-11T02:04:20.241Z,-3.05
2022-12-11T02:06:49.285Z,-3.02
2022-12-11T02:09:25.713Z,-2.99
2022-12-11T02:12:29.619Z,-2.99
2022-12-11T02:15:21.288Z,-2.95
2022-12-11T02:17:54.809Z,-2.93
2022-12-11T02:20:39.591Z,-2.90
2022-12-11T02:23:12.935Z,-2.87
2022-12-11T02:26:00.721Z,-2.84
2022-12-11T02:28:51.682Z,-2.81
2022-12-11T02:31:24.020Z,-2.78
2022-12-11T02:34:04.795Z,-2.80
2022-12-11T02:36:40.324Z,-2.77
2022-12-11T02:39:12.517Z,-2.74
2022-12-11T02:41:43.160Z,-2.75
2022-12-11T02:44:14.185Z,-2.76
2022-12-11T02:46:43.182Z,-2.76
2022-12-11T02:49:12.379Z,-2.80
2022-12-11T02:51:42.116Z,-2.77
2022-12-11T02:54:17.135Z,-2.77
2022-12-11T02:56:57.346Z,-2.77
2022-12-11T02:59:45.727Z,-2.78
2022-12-11T03:02:14.632Z,-2.76
2022-12-11T03:04:43.013Z,-2.77
2022-12-11T03:07:17.879Z,-2.82
2022-12-11T03:09:47.455Z,-2.80
2022-12-11T03:12:19.616Z,-2.81
2022-12-11T03:14:46.825Z,-2.83
2022-12-11T03:17:19.062Z,-2.84
2022-12-11T03:20:07.370Z,-2.84
2022-12-11T03:22:40.037Z,-2.84
2022-12-11T03:25:17.566Z,-2.85
2022-12-11T03:27:58.333Z,-2.88
2022-12-11T03:30:28.771Z,-2.88
2022-12-11T03:33:04.683Z,-2.94
2022-12-11T03:35:36.703Z,-2.97
2022-12-11T03:38:09.155Z,-3.07
2022-12-11T03:40:37.107Z,-3.02
2022-12-11T03:43:05.847Z,-3.03
2022-12-11T03:45:33.819Z,-3.00
2022-12-11T03:48:02.966Z,-2.98
2022-12-11T03:50:32.497Z,-3.03
2022-12-11T03:53:01.804Z,-3.03
2022-12-11T03:55:30.478Z,-3.06
2022-12-11T03:57:57.334Z,-3.10
2022-12-11T04:00:24.239Z,-3.09
2022-12-11T04:03:13.298Z,-3.07
2022-12-11T04:05:43.837Z,-3.04
2022-12-11T04:08:11.310Z,-3.00
2022-12-11T04:10:38.627Z,-3.02
2022-12-11T04:13:05.379Z,-2.99
2022-12-11T04:15:32.299Z,-2.97
2022-12-11T04:18:17.705Z,-2.97
2022-12-11T04:21:03.064Z,-2.96
2022-12-11T04:23:48.758Z,-2.95
2022-12-11T04:26:18.836Z,-2.95
2022-12-11T04:28:47.527Z,-2.94
2022-12-11T04:31:20.145Z,-2.93
2022-12-11T04:33:47.529Z,-2.95
2022-12-11T04:36:15.220Z,-2.94
2022-12-11T04:38:42.032Z,-2.96
2022-12-11T04:41:12.059Z,-3.01
2022-12-11T04:43:39.456Z,-3.00
2022-12-11T04:46:08.969Z,-2.99
2022-12-11T04:48:36.294Z,-2.97
2022-12-11T04:51:03.276Z,-2.99
2022-12-11T04:53:30.561Z,-3.00
2022-12-11T04:55:57.373Z,-2.99
2022-12-11T04:58:25.099Z,-2.99
2022-12-11T05:00:52.159Z,-2.98
2022-12-11T05:03:19.453Z,-2.97
2022-12-11T05:05:51.453Z,-2.99
2022-12-11T05:08:19.436Z,-2.97
2022-12-11T05:10:55.816Z,-2.97
2022-12-11T05:13:22.572Z,-2.94
2022-12-11T05:15:49.367Z,-2.92
2022-12-11T05:18:16.244Z,-2.95
2022-12-11T05:20:42.982Z,-2.96
2022-12-11T05:23:09.786Z,-2.98
2022-12-11T05:25:36.529Z,-3.00
2022-12-11T05:28:03.713Z,-3.00
2022-12-11T05:30:30.431Z,-2.99
2022-12-11T05:32:57.134Z,-2.97
2022-12-11T05:35:23.941Z,-2.97
2022-12-11T05:37:50.627Z,-2.97
2022-12-11T05:40:17.337Z,-3.01
2022-12-11T05:42:44.241Z,-3.02
2022-12-11T05:45:11.549Z,-3.04
2022-12-11T05:47:38.467Z,-3.03
2022-12-11T05:50:05.447Z,-3.00
2022-12-11T05:52:32.525Z,-2.99
2022-12-11T05:54:59.313Z,-2.97
2022-12-11T05:57:26.084Z,-2.96
2022-12-11T05:59:52.823Z,-3.02
2022-12-11T06:02:19.663Z,-3.09
2022-12-11T06:04:46.623Z,-3.08
2022-12-11T06:07:13.659Z,-3.05
2022-12-11T06:09:40.357Z,-3.06
2022-12-11T06:12:07.155Z,-3.02
2022-12-11T06:14:33.915Z,-3.00
2022-12-11T06:17:01.656Z,-2.99
2022-12-11T06:19:32.013Z,-2.98
2022-12-11T06:22:03.380Z,-2.99
2022-12-11T06:24:30.195Z,-2.96
2022-12-11T06:26:56.962Z,-3.00
2022-12-11T06:29:23.738Z,-2.97
2022-12-11T06:31:50.654Z,-2.97
2022-12-11T06:34:17.385Z,-2.98
2022-12-11T06:36:44.151Z,-2.99
2022-12-11T06:39:10.998Z,-3.00
2022-12-11T06:41:37.963Z,-3.05
2022-12-11T06:44:04.692Z,-3.05
2022-12-11T06:46:31.528Z,-3.07
2022-12-11T06:48:58.253Z,-3.07
2022-12-11T06:51:25.020Z,-3.08
2022-12-11T06:53:56.871Z,-3.10
2022-12-11T06:56:24.934Z,-3.09
2022-12-11T06:58:52.213Z,-3.12
2022-12-11T07:01:21.972Z,-3.17
2022-12-11T07:03:49.331Z,-3.21
2022-12-11T07:06:16.284Z,-3.28
2022-12-11T07:08:43.695Z,-3.28
2022-12-11T07:11:13.588Z,-3.28
2022-12-11T07:13:42.104Z,-3.29
2022-12-11T07:16:13.844Z,-3.33
2022-12-11T07:18:43.750Z,-3.36
2022-12-11T07:21:13.199Z,-3.40
2022-12-11T07:23:40.708Z,-3.50
2022-12-11T07:26:10.478Z,-3.43
2022-12-11T07:28:37.632Z,-3.49
2022-12-11T07:31:13.405Z,-3.49
2022-12-11T07:33:41.099Z,-3.49
2022-12-11T07:36:10.111Z,-3.51
2022-12-11T07:38:37.343Z,-3.58
2022-12-11T07:41:06.266Z,-3.50
2022-12-11T07:43:34.446Z,-3.51
2022-12-11T07:46:08.786Z,-3.46
2022-12-11T07:48:36.740Z,-3.47
2022-12-11T07:51:20.034Z,-3.44
2022-12-11T07:53:49.837Z,-3.42
2022-12-11T07:56:17.910Z,-3.40
2022-12-11T07:58:45.732Z,-3.37
2022-12-11T08:01:21.591Z,-3.36
2022-12-11T08:03:49.112Z,-3.34
2022-12-11T08:06:15.858Z,-3.32
2022-12-11T08:08:43.265Z,-3.31
2022-12-11T08:11:13.146Z,-3.32
2022-12-11T08:13:41.031Z,-3.32
2022-12-11T08:16:10.651Z,-3.37
2022-12-11T08:18:37.743Z,-3.37
2022-12-11T08:21:09.896Z,-3.38
2022-12-11T08:23:37.259Z,-3.38
2022-12-11T08:26:06.019Z,-3.39
2022-12-11T08:28:33.560Z,-3.42
2022-12-11T08:31:00.487Z,-3.42
2022-12-11T08:33:27.222Z,-3.45
2022-12-11T08:35:53.996Z,-3.47
2022-12-11T08:38:25.132Z,-3.49
2022-12-11T08:40:52.368Z,-3.50
2022-12-11T08:43:19.090Z,-3.51
2022-12-11T08:45:47.169Z,-3.50
2022-12-11T08:48:14.046Z,-3.47
2022-12-11T08:50:40.969Z,-3.52
2022-12-11T08:53:07.803Z,-3.46
2022-12-11T08:55:34.763Z,-3.48
2022-12-11T08:58:01.513Z,-3.47
2022-12-11T09:00:28.293Z,-3.45
2022-12-11T09:02:55.019Z,-3.46
2022-12-11T09:05:21.732Z,-3.46
2022-12-11T09:07:48.572Z,-3.46
2022-12-11T09:10:15.295Z,-3.44
2022-12-11T09:12:42.794Z,-3.41
2022-12-11T09:15:10.365Z,-3.41
2022-12-11T09:17:37.486Z,-3.46
2022-12-11T09:20:05.099Z,-3.45
2022-12-11T09:22:33.703Z,-3.43
2022-12-11T09:25:00.544Z,-3.42
2022-12-11T09:27:27.380Z,-3.41
2022-12-11T09:29:54.101Z,-3.39
2022-12-11T09:32:21.026Z,-3.43
2022-12-11T09:34:50.975Z,-3.48
2022-12-11T09:37:17.865Z,-3.47
2022-12-11T09:39:44.768Z,-3.55
2022-12-11T09:42:41.465Z,-3.57
2022-12-11T09:45:15.256Z,-3.59
2022-12-11T09:47:46.039Z,-3.57
2022-12-11T09:50:29.958Z,-3.63
2022-12-11T09:53:05.627Z,-3.54
2022-12-11T09:55:55.750Z,-3.43
2022-12-11T09:58:37.710Z,-3.31
2022-12-11T10:01:29.150Z,-3.22
2022-12-11T10:04:13.901Z,-3.21
2022-12-11T10:06:52.603Z,-3.10
2022-12-11T10:09:30.560Z,-3.05
2022-12-11T10:12:18.426Z,-3.00
2022-12-11T10:15:06.729Z,-2.97
2022-12-11T10:17:35.243Z,-2.90
2022-12-11T10:20:39.567Z,-2.85
2022-12-11T10:23:09.204Z,-2.79
2022-12-11T10:25:49.936Z,-2.73
2022-12-11T10:28:19.110Z,-2.66
2022-12-11T10:31:08.846Z,-2.61
2022-12-11T10:33:54.147Z,-2.53
2022-12-11T10:36:27.743Z,-2.45
2022-12-11T10:38:54.972Z,-2.36
2022-12-11T10:41:39.475Z,-2.28
2022-12-11T10:44:16.912Z,-2.18
2022-12-11T10:46:44.483Z,-2.16
2022-12-11T10:49:23.153Z,-2.09
2022-12-11T10:51:50.664Z,-2.02
2022-12-11T10:54:29.621Z,-1.98
2022-12-11T10:56:57.126Z,-2.03
2022-12-11T10:59:30.811Z,-1.87
2022-12-11T11:01:58.318Z,-1.87
2022-12-11T11:04:32.351Z,-1.84
2022-12-11T11:07:24.345Z,-1.82
2022-12-11T11:10:03.035Z,-1.73
2022-12-11T11:12:29.829Z,-1.65
2022-12-11T11:15:05.473Z,-1.74
2022-12-11T11:17:35.761Z,-1.81
2022-12-11T11:20:12.183Z,-1.82
2022-12-11T11:22:44.631Z,-1.71
2022-12-11T11:25:26.333Z,-1.69
2022-12-11T11:27:55.065Z,-1.69
2022-12-11T11:30:33.528Z,-1.64
2022-12-11T11:33:16.880Z,-1.61
2022-12-11T11:35:58.707Z,-1.57
2022-12-11T11:38:38.272Z,-1.56
2022-12-11T11:41:17.263Z,-1.52
2022-12-11T11:43:56.479Z,-1.45
2022-12-11T11:46:46.320Z,-1.40
2022-12-11T11:49:19.191Z,-1.31
2022-12-11T11:51:55.103Z,-1.29
2022-12-11T11:54:29.846Z,-1.20
2022-12-11T11:56:57.919Z,-1.23
2022-12-11T11:59:34.689Z,-1.15
2022-12-11T12:02:01.501Z,-1.05
2022-12-11T12:04:33.781Z,-1.00
2022-12-11T12:07:30.685Z,-1.00
2022-12-11T12:10:26.666Z,-0.92
2022-12-11T12:13:01.505Z,-0.84
2022-12-11T12:15:39.981Z,-0.82
2022-12-11T12:18:28.723Z,-0.73
2022-12-11T12:21:08.607Z,-0.70
2022-12-11T12:23:48.480Z,-0.65
2022-12-11T12:26:29.663Z,-0.62
2022-12-11T12:28:59.293Z,-0.55
2022-12-11T21:49:00.955Z,-1.00
2022-12-11T21:51:36.484Z,-0.95
2022-12-11T21:54:06.526Z,-0.92
2022-12-11T21:56:33.862Z,-0.88
2022-12-11T21:59:01.714Z,-0.86
2022-12-11T22:01:33.859Z,-0.86
2022-12-11T22:04:01.454Z,-0.85
2022-12-11T22:06:28.195Z,-0.85
2022-12-11T22:08:55.124Z,-0.85
2022-12-11T22:11:26.112Z,-0.85
2022-12-11T22:13:52.926Z,-0.85
2022-12-11T22:16:19.829Z,-0.84
2022-12-11T22:18:46.835Z,-0.83
2022-12-11T22:21:14.218Z,-0.83
2022-12-11T22:23:41.835Z,-0.85
2022-12-11T22:26:10.070Z,-0.83
2022-12-11T22:28:36.845Z,-0.83
2022-12-11T22:31:03.651Z,-0.84
2022-12-11T22:33:30.474Z,-0.85
2022-12-11T22:35:58.731Z,-0.85
2022-12-11T22:38:26.188Z,-0.87
2022-12-11T22:40:54.503Z,-0.88
2022-12-11T22:43:21.869Z,-0.88
2022-12-11T22:45:48.712Z,-0.88
2022-12-11T22:48:15.613Z,-0.90
2022-12-11T22:50:43.653Z,-0.90
2022-12-11T22:53:10.375Z,-0.90
2022-12-11T22:55:40.284Z,-0.88
2022-12-11T22:58:07.525Z,-0.88
2022-12-11T23:00:34.687Z,-0.88
2022-12-11T23:03:02.387Z,-0.86
2022-12-11T23:05:29.743Z,-0.87
2022-12-11T23:07:56.591Z,-0.87
2022-12-11T23:10:23.716Z,-0.87
2022-12-11T23:12:50.652Z,-0.87
2022-12-11T23:15:18.384Z,-0.87
2022-12-11T23:17:45.128Z,-0.88
2022-12-11T23:20:12.191Z,-0.90
2022-12-11T23:22:39.050Z,-0.93
2022-12-11T23:25:06.324Z,-1.02
2022-12-11T23:27:33.013Z,-1.02
2022-12-11T23:29:59.829Z,-1.04
2022-12-11T23:32:26.659Z,-1.03
2022-12-11T23:34:53.340Z,-1.09
2022-12-11T23:37:20.187Z,-1.05
2022-12-11T23:39:47.007Z,-1.06
2022-12-11T23:42:14.262Z,-1.06
2022-12-11T23:44:41.359Z,-1.05
2022-12-11T23:47:08.188Z,-1.05
2022-12-11T23:49:34.948Z,-1.04
2022-12-11T23:52:02.028Z,-1.05
2022-12-11T23:54:28.780Z,-1.05
2022-12-11T23:56:55.521Z,-1.09
2022-12-11T23:59:22.420Z,-1.10
